sensor_id;sensor_type;location;lat;lon;timestamp;temperature;humidity
5779;DHT22;2916;49.798;10.022;2023-03-23T00:02:23;13.80;1.00
5779;DHT22;2916;49.798;10.022;2023-03-23T00:04:51;13.80;1.00
5779;DHT22;2916;49.798;10.022;2023-03-23T00:07:19;13.70;1.00
5779;DHT22;2916;49.798;10.022;2023-03-23T00:09:48;13.80;1.00
5779;DHT22;2916;49.798;10.022;2023-03-23T00:12:20;13.80;1.00
5779;DHT22;2916;49.798;10.022;2023-03-23T00:14:58;13.80;1.00
5779;DHT22;2916;49.798;10.022;2023-03-23T00:17:26;13.80;1.00
5779;DHT22;2916;49.798;10.022;2023-03-23T00:19:53;13.80;1.00
5779;DHT22;2916;49.798;10.022;2023-03-23T00:22:21;13.80;1.00
5779;DHT22;2916;49.798;10.022;2023-03-23T00:24:51;13.80;1.00
5779;DHT22;2916;49.798;10.022;2023-03-23T00:27:20;13.80;1.00
5779;DHT22;2916;49.798;10.022;2023-03-23T00:29:48;13.70;1.00
5779;DHT22;2916;49.798;10.022;2023-03-23T00:32:18;13.70;1.00
5779;DHT22;2916;49.798;10.022;2023-03-23T00:34:52;13.70;1.00
5779;DHT22;2916;49.798;10.022;2023-03-23T00:37:20;13.70;1.00
5779;DHT22;2916;49.798;10.022;2023-03-23T00:39:48;13.70;1.00
5779;DHT22;2916;49.798;10.022;2023-03-23T00:42:17;13.60;1.00
5779;DHT22;2916;49.798;10.022;2023-03-23T00:44:47;13.60;1.00
5779;DHT22;2916;49.798;10.022;2023-03-23T00:47:14;13.60;1.00
5779;DHT22;2916;49.798;10.022;2023-03-23T00:49:43;13.60;1.00
5779;DHT22;2916;49.798;10.022;2023-03-23T00:52:10;13.60;1.00
5779;DHT22;2916;49.798;10.022;2023-03-23T00:54:37;13.60;1.00
5779;DHT22;2916;49.798;10.022;2023-03-23T00:57:05;13.60;1.00
5779;DHT22;2916;49.798;10.022;2023-03-23T00:59:34;13.60;1.00
5779;DHT22;2916;49.798;10.022;2023-03-23T01:02:01;13.60;1.00
5779;DHT22;2916;49.798;10.022;2023-03-23T01:04:28;13.60;1.00
5779;DHT22;2916;49.798;10.022;2023-03-23T01:06:57;13.60;1.00
5779;DHT22;2916;49.798;10.022;2023-03-23T01:09:26;13.60;1.00
5779;DHT22;2916;49.798;10.022;2023-03-23T01:11:54;13.60;1.00
5779;DHT22;2916;49.798;10.022;2023-03-23T01:14:22;13.60;1.00
5779;DHT22;2916;49.798;10.022;2023-03-23T01:16:52;13.60;1.00
5779;DHT22;2916;49.798;10.022;2023-03-23T01:19:19;13.60;1.00
5779;DHT22;2916;49.798;10.022;2023-03-23T01:21:46;13.60;1.00
5779;DHT22;2916;49.798;10.022;2023-03-23T01:24:13;13.60;1.00
5779;DHT22;2916;49.798;10.022;2023-03-23T01:26:40;13.60;1.00
5779;DHT22;2916;49.798;10.022;2023-03-23T01:29:07;13.60;1.00
5779;DHT22;2916;49.798;10.022;2023-03-23T01:31:35;13.60;1.00
5779;DHT22;2916;49.798;10.022;2023-03-23T01:34:04;13.60;1.00
5779;DHT22;2916;49.798;10.022;2023-03-23T01:36:32;13.60;1.00
5779;DHT22;2916;49.798;10.022;2023-03-23T01:39:00;13.60;1.00
5779;DHT22;2916;49.798;10.022;2023-03-23T01:41:29;13.60;1.00
5779;DHT22;2916;49.798;10.022;2023-03-23T01:44:00;13.60;1.00
5779;DHT22;2916;49.798;10.022;2023-03-23T01:46:30;13.60;1.00
5779;DHT22;2916;49.798;10.022;2023-03-23T01:49:01;13.50;1.00
5779;DHT22;2916;49.798;10.022;2023-03-23T01:51:36;13.50;1.00
5779;DHT22;2916;49.798;10.022;2023-03-23T01:54:09;13.50;1.00
5779;DHT22;2916;49.798;10.022;2023-03-23T01:56:42;13.50;1.00
5779;DHT22;2916;49.798;10.022;2023-03-23T01:59:15;13.50;1.00
5779;DHT22;2916;49.798;10.022;2023-03-23T02:01:43;13.50;1.00
5779;DHT22;2916;49.798;10.022;2023-03-23T02:04:14;13.50;1.00
5779;DHT22;2916;49.798;10.022;2023-03-23T02:06:43;13.40;1.00
5779;DHT22;2916;49.798;10.022;2023-03-23T02:09:11;13.50;1.00
5779;DHT22;2916;49.798;10.022;2023-03-23T02:11:42;13.50;1.00
5779;DHT22;2916;49.798;10.022;2023-03-23T02:14:10;13.50;1.00
5779;DHT22;2916;49.798;10.022;2023-03-23T02:16:43;13.50;1.00
5779;DHT22;2916;49.798;10.022;2023-03-23T02:22:43;13.50;1.00
5779;DHT22;2916;49.798;10.022;2023-03-23T02:25:37;13.50;1.00
5779;DHT22;2916;49.798;10.022;2023-03-23T02:28:25;13.50;1.00
5779;DHT22;2916;49.798;10.022;2023-03-23T02:31:28;13.40;1.00
5779;DHT22;2916;49.798;10.022;2023-03-23T02:34:09;13.30;1.00
5779;DHT22;2916;49.798;10.022;2023-03-23T02:36:46;13.30;1.00
5779;DHT22;2916;49.798;10.022;2023-03-23T02:39:21;13.30;1.00
5779;DHT22;2916;49.798;10.022;2023-03-23T02:41:52;13.30;1.00
5779;DHT22;2916;49.798;10.022;2023-03-23T02:44:23;13.30;1.00
5779;DHT22;2916;49.798;10.022;2023-03-23T02:46:56;13.20;1.00
5779;DHT22;2916;49.798;10.022;2023-03-23T02:49:30;13.20;1.00
5779;DHT22;2916;49.798;10.022;2023-03-23T02:52:02;13.20;1.00
5779;DHT22;2916;49.798;10.022;2023-03-23T02:54:33;13.20;1.00
5779;DHT22;2916;49.798;10.022;2023-03-23T02:57:02;13.20;1.00
5779;DHT22;2916;49.798;10.022;2023-03-23T02:59:30;13.20;1.00
5779;DHT22;2916;49.798;10.022;2023-03-23T03:02:04;13.20;1.00
5779;DHT22;2916;49.798;10.022;2023-03-23T03:04:35;13.10;1.00
5779;DHT22;2916;49.798;10.022;2023-03-23T03:07:27;13.10;1.00
5779;DHT22;2916;49.798;10.022;2023-03-23T03:10:06;13.10;1.00
5779;DHT22;2916;49.798;10.022;2023-03-23T03:12:44;13.10;1.00
5779;DHT22;2916;49.798;10.022;2023-03-23T03:15:23;13.00;1.00
5779;DHT22;2916;49.798;10.022;2023-03-23T03:18:00;13.10;1.00
5779;DHT22;2916;49.798;10.022;2023-03-23T03:20:40;13.00;1.00
5779;DHT22;2916;49.798;10.022;2023-03-23T03:23:13;13.00;1.00
5779;DHT22;2916;49.798;10.022;2023-03-23T03:25:43;13.00;1.00
5779;DHT22;2916;49.798;10.022;2023-03-23T03:28:14;13.00;1.00
5779;DHT22;2916;49.798;10.022;2023-03-23T03:30:48;13.00;1.00
5779;DHT22;2916;49.798;10.022;2023-03-23T03:33:19;13.00;1.00
5779;DHT22;2916;49.798;10.022;2023-03-23T03:35:53;12.90;1.00
5779;DHT22;2916;49.798;10.022;2023-03-23T03:38:22;12.90;1.00
5779;DHT22;2916;49.798;10.022;2023-03-23T03:40:50;13.00;1.00
5779;DHT22;2916;49.798;10.022;2023-03-23T03:43:18;13.00;1.00
5779;DHT22;2916;49.798;10.022;2023-03-23T03:45:46;13.00;1.00
5779;DHT22;2916;49.798;10.022;2023-03-23T03:48:13;13.00;1.00
5779;DHT22;2916;49.798;10.022;2023-03-23T03:50:40;13.00;1.00
5779;DHT22;2916;49.798;10.022;2023-03-23T03:53:09;13.00;1.00
5779;DHT22;2916;49.798;10.022;2023-03-23T03:55:36;13.10;1.00
5779;DHT22;2916;49.798;10.022;2023-03-23T03:58:04;13.00;1.00
5779;DHT22;2916;49.798;10.022;2023-03-23T04:00:33;13.10;1.00
5779;DHT22;2916;49.798;10.022;2023-03-23T04:03:00;13.10;1.00
5779;DHT22;2916;49.798;10.022;2023-03-23T04:05:27;13.10;1.00
5779;DHT22;2916;49.798;10.022;2023-03-23T04:07:55;13.10;1.00
5779;DHT22;2916;49.798;10.022;2023-03-23T04:10:29;13.10;1.00
5779;DHT22;2916;49.798;10.022;2023-03-23T04:12:57;13.20;1.00
5779;DHT22;2916;49.798;10.022;2023-03-23T04:15:25;13.20;1.00
5779;DHT22;2916;49.798;10.022;2023-03-23T04:17:52;13.20;1.00
5779;DHT22;2916;49.798;10.022;2023-03-23T04:20:23;13.20;1.00
5779;DHT22;2916;49.798;10.022;2023-03-23T04:22:52;13.20;1.00
5779;DHT22;2916;49.798;10.022;2023-03-23T04:25:21;13.30;1.00
5779;DHT22;2916;49.798;10.022;2023-03-23T04:27:51;13.20;1.00
5779;DHT22;2916;49.798;10.022;2023-03-23T04:30:20;13.20;1.00
5779;DHT22;2916;49.798;10.022;2023-03-23T04:32:49;13.20;1.00
5779;DHT22;2916;49.798;10.022;2023-03-23T04:35:22;13.20;1.00
5779;DHT22;2916;49.798;10.022;2023-03-23T04:37:51;13.20;1.00
5779;DHT22;2916;49.798;10.022;2023-03-23T04:40:19;13.20;1.00
5779;DHT22;2916;49.798;10.022;2023-03-23T04:42:50;13.30;1.00
5779;DHT22;2916;49.798;10.022;2023-03-23T04:45:22;13.30;1.00
5779;DHT22;2916;49.798;10.022;2023-03-23T04:47:50;13.30;1.00
5779;DHT22;2916;49.798;10.022;2023-03-23T04:50:23;13.30;1.00
5779;DHT22;2916;49.798;10.022;2023-03-23T04:52:53;13.30;1.00
5779;DHT22;2916;49.798;10.022;2023-03-23T04:55:22;13.30;1.00
5779;DHT22;2916;49.798;10.022;2023-03-23T04:57:52;13.30;1.00
5779;DHT22;2916;49.798;10.022;2023-03-23T05:00:20;13.30;1.00
5779;DHT22;2916;49.798;10.022;2023-03-23T05:02:47;13.30;1.00
5779;DHT22;2916;49.798;10.022;2023-03-23T05:05:17;13.30;1.00
5779;DHT22;2916;49.798;10.022;2023-03-23T05:07:45;13.30;1.00
5779;DHT22;2916;49.798;10.022;2023-03-23T05:10:13;13.20;1.00
5779;DHT22;2916;49.798;10.022;2023-03-23T05:12:42;13.30;1.00
5779;DHT22;2916;49.798;10.022;2023-03-23T05:15:12;13.30;1.00
5779;DHT22;2916;49.798;10.022;2023-03-23T05:17:42;13.30;1.00
5779;DHT22;2916;49.798;10.022;2023-03-23T05:20:11;13.30;1.00
5779;DHT22;2916;49.798;10.022;2023-03-23T05:22:44;13.30;1.00
5779;DHT22;2916;49.798;10.022;2023-03-23T05:25:13;13.30;1.00
5779;DHT22;2916;49.798;10.022;2023-03-23T05:27:40;13.30;1.00
5779;DHT22;2916;49.798;10.022;2023-03-23T05:30:11;13.30;1.00
5779;DHT22;2916;49.798;10.022;2023-03-23T05:32:41;13.30;1.00
5779;DHT22;2916;49.798;10.022;2023-03-23T05:35:08;13.20;1.00
5779;DHT22;2916;49.798;10.022;2023-03-23T05:37:35;13.20;1.00
5779;DHT22;2916;49.798;10.022;2023-03-23T05:40:03;13.20;1.00
5779;DHT22;2916;49.798;10.022;2023-03-23T05:42:32;13.20;1.00
5779;DHT22;2916;49.798;10.022;2023-03-23T05:45:01;13.20;1.00
5779;DHT22;2916;49.798;10.022;2023-03-23T05:47:30;13.20;1.00
5779;DHT22;2916;49.798;10.022;2023-03-23T05:49:57;13.20;2.30
5779;DHT22;2916;49.798;10.022;2023-03-23T05:52:26;13.10;9.10
5779;DHT22;2916;49.798;10.022;2023-03-23T05:54:54;13.10;17.80
5779;DHT22;2916;49.798;10.022;2023-03-23T05:57:21;13.00;14.70
5779;DHT22;2916;49.798;10.022;2023-03-23T05:59:48;13.00;17.70
5779;DHT22;2916;49.798;10.022;2023-03-23T06:02:16;13.00;23.10
5779;DHT22;2916;49.798;10.022;2023-03-23T06:04:44;12.80;57.70
5779;DHT22;2916;49.798;10.022;2023-03-23T06:07:11;12.70;63.00
5779;DHT22;2916;49.798;10.022;2023-03-23T06:09:40;12.70;66.00
5779;DHT22;2916;49.798;10.022;2023-03-23T06:12:08;12.70;54.00
5779;DHT22;2916;49.798;10.022;2023-03-23T06:14:36;12.60;66.10
5779;DHT22;2916;49.798;10.022;2023-03-23T06:17:04;12.60;62.90
5779;DHT22;2916;49.798;10.022;2023-03-23T06:19:31;12.60;75.70
5779;DHT22;2916;49.798;10.022;2023-03-23T06:22:01;12.60;88.70
5779;DHT22;2916;49.798;10.022;2023-03-23T06:24:28;12.60;94.90
5779;DHT22;2916;49.798;10.022;2023-03-23T06:26:55;12.60;92.50
5779;DHT22;2916;49.798;10.022;2023-03-23T06:29:22;12.60;92.20
5779;DHT22;2916;49.798;10.022;2023-03-23T06:31:52;12.60;96.20
5779;DHT22;2916;49.798;10.022;2023-03-23T06:34:22;12.70;99.30
5779;DHT22;2916;49.798;10.022;2023-03-23T06:36:50;12.60;97.20
5779;DHT22;2916;49.798;10.022;2023-03-23T06:39:19;12.60;92.70
5779;DHT22;2916;49.798;10.022;2023-03-23T06:41:47;12.60;90.90
5779;DHT22;2916;49.798;10.022;2023-03-23T06:44:15;12.60;90.30
5779;DHT22;2916;49.798;10.022;2023-03-23T06:46:43;12.60;74.60
5779;DHT22;2916;49.798;10.022;2023-03-23T06:49:10;12.70;78.10
5779;DHT22;2916;49.798;10.022;2023-03-23T06:51:38;12.70;86.00
5779;DHT22;2916;49.798;10.022;2023-03-23T06:54:05;12.70;72.40
5779;DHT22;2916;49.798;10.022;2023-03-23T06:56:34;12.70;82.20
5779;DHT22;2916;49.798;10.022;2023-03-23T06:59:01;12.70;77.30
5779;DHT22;2916;49.798;10.022;2023-03-23T07:01:29;12.70;69.80
5779;DHT22;2916;49.798;10.022;2023-03-23T07:03:56;12.80;70.90
5779;DHT22;2916;49.798;10.022;2023-03-23T07:06:24;12.80;77.10
5779;DHT22;2916;49.798;10.022;2023-03-23T07:08:52;12.70;75.30
5779;DHT22;2916;49.798;10.022;2023-03-23T07:11:19;12.80;79.30
5779;DHT22;2916;49.798;10.022;2023-03-23T07:13:47;12.70;74.20
5779;DHT22;2916;49.798;10.022;2023-03-23T07:16:16;12.90;66.60
5779;DHT22;2916;49.798;10.022;2023-03-23T07:18:44;12.90;59.90
5779;DHT22;2916;49.798;10.022;2023-03-23T07:21:11;12.90;59.80
5779;DHT22;2916;49.798;10.022;2023-03-23T07:23:39;13.00;50.60
5779;DHT22;2916;49.798;10.022;2023-03-23T07:26:07;13.00;48.30
5779;DHT22;2916;49.798;10.022;2023-03-23T07:28:35;13.00;51.50
5779;DHT22;2916;49.798;10.022;2023-03-23T07:31:04;13.00;46.80
5779;DHT22;2916;49.798;10.022;2023-03-23T07:33:33;13.00;42.20
5779;DHT22;2916;49.798;10.022;2023-03-23T07:36:01;13.10;45.70
5779;DHT22;2916;49.798;10.022;2023-03-23T07:38:28;13.10;41.20
5779;DHT22;2916;49.798;10.022;2023-03-23T07:40:56;13.10;40.70
5779;DHT22;2916;49.798;10.022;2023-03-23T07:43:23;13.20;34.00
5779;DHT22;2916;49.798;10.022;2023-03-23T07:45:50;13.30;29.40
5779;DHT22;2916;49.798;10.022;2023-03-23T07:48:19;13.30;29.60
5779;DHT22;2916;49.798;10.022;2023-03-23T07:50:46;13.40;28.40
5779;DHT22;2916;49.798;10.022;2023-03-23T07:53:13;13.50;25.60
5779;DHT22;2916;49.798;10.022;2023-03-23T07:55:42;13.50;30.30
5779;DHT22;2916;49.798;10.022;2023-03-23T07:58:09;13.60;27.80
5779;DHT22;2916;49.798;10.022;2023-03-23T08:00:38;13.60;27.60
5779;DHT22;2916;49.798;10.022;2023-03-23T08:03:05;13.60;27.90
5779;DHT22;2916;49.798;10.022;2023-03-23T08:05:35;13.60;27.00
5779;DHT22;2916;49.798;10.022;2023-03-23T08:08:02;13.70;26.40
5779;DHT22;2916;49.798;10.022;2023-03-23T08:10:30;13.70;29.80
5779;DHT22;2916;49.798;10.022;2023-03-23T08:12:57;13.80;28.90
5779;DHT22;2916;49.798;10.022;2023-03-23T08:15:25;13.80;30.20
5779;DHT22;2916;49.798;10.022;2023-03-23T08:17:53;13.80;29.60
5779;DHT22;2916;49.798;10.022;2023-03-23T08:20:21;13.80;32.40
5779;DHT22;2916;49.798;10.022;2023-03-23T08:22:54;13.70;37.60
5779;DHT22;2916;49.798;10.022;2023-03-23T08:25:23;13.70;39.90
5779;DHT22;2916;49.798;10.022;2023-03-23T08:27:51;13.70;41.70
5779;DHT22;2916;49.798;10.022;2023-03-23T08:30:20;13.70;52.10
5779;DHT22;2916;49.798;10.022;2023-03-23T08:32:50;13.60;50.20
5779;DHT22;2916;49.798;10.022;2023-03-23T08:35:18;13.60;50.50
5779;DHT22;2916;49.798;10.022;2023-03-23T08:37:46;13.60;58.70
5779;DHT22;2916;49.798;10.022;2023-03-23T08:40:20;13.50;57.70
5779;DHT22;2916;49.798;10.022;2023-03-23T08:42:50;13.50;69.70
5779;DHT22;2916;49.798;10.022;2023-03-23T08:45:20;13.50;85.20
5779;DHT22;2916;49.798;10.022;2023-03-23T08:47:50;13.40;90.70
5779;DHT22;2916;49.798;10.022;2023-03-23T08:50:23;13.40;92.10
5779;DHT22;2916;49.798;10.022;2023-03-23T08:52:53;13.20;98.80
5779;DHT22;2916;49.798;10.022;2023-03-23T08:55:22;13.20;99.90
5779;DHT22;2916;49.798;10.022;2023-03-23T08:57:50;13.20;99.90
5779;DHT22;2916;49.798;10.022;2023-03-23T09:00:20;13.10;99.90
5779;DHT22;2916;49.798;10.022;2023-03-23T09:02:52;13.10;99.90
5779;DHT22;2916;49.798;10.022;2023-03-23T09:05:21;13.10;99.90
5779;DHT22;2916;49.798;10.022;2023-03-23T09:07:52;13.10;99.90
5779;DHT22;2916;49.798;10.022;2023-03-23T09:10:22;13.20;99.90
5779;DHT22;2916;49.798;10.022;2023-03-23T09:12:52;13.20;99.90
5779;DHT22;2916;49.798;10.022;2023-03-23T09:15:21;13.20;99.90
5779;DHT22;2916;49.798;10.022;2023-03-23T09:17:50;13.30;99.90
5779;DHT22;2916;49.798;10.022;2023-03-23T09:20:21;13.30;99.90
5779;DHT22;2916;49.798;10.022;2023-03-23T09:22:50;13.30;99.90
5779;DHT22;2916;49.798;10.022;2023-03-23T09:25:23;13.20;99.90
5779;DHT22;2916;49.798;10.022;2023-03-23T09:27:54;13.20;99.90
5779;DHT22;2916;49.798;10.022;2023-03-23T09:30:24;13.20;99.90
5779;DHT22;2916;49.798;10.022;2023-03-23T09:32:54;13.20;99.90
5779;DHT22;2916;49.798;10.022;2023-03-23T09:35:22;13.20;99.90
5779;DHT22;2916;49.798;10.022;2023-03-23T09:37:51;13.20;99.90
5779;DHT22;2916;49.798;10.022;2023-03-23T09:40:21;13.20;99.90
5779;DHT22;2916;49.798;10.022;2023-03-23T09:46:18;13.30;99.90
5779;DHT22;2916;49.798;10.022;2023-03-23T09:48:57;13.20;99.90
5779;DHT22;2916;49.798;10.022;2023-03-23T09:51:34;13.30;99.90
5779;DHT22;2916;49.798;10.022;2023-03-23T09:54:12;13.30;99.90
5779;DHT22;2916;49.798;10.022;2023-03-23T09:56:47;13.30;99.90
5779;DHT22;2916;49.798;10.022;2023-03-23T09:59:20;13.30;99.90
5779;DHT22;2916;49.798;10.022;2023-03-23T10:01:57;13.30;99.90
5779;DHT22;2916;49.798;10.022;2023-03-23T10:04:41;13.30;99.90
5779;DHT22;2916;49.798;10.022;2023-03-23T10:07:14;13.20;99.90
5779;DHT22;2916;49.798;10.022;2023-03-23T10:09:44;13.20;99.90
5779;DHT22;2916;49.798;10.022;2023-03-23T10:12:21;13.20;99.90
5779;DHT22;2916;49.798;10.022;2023-03-23T10:15:08;13.30;99.90
5779;DHT22;2916;49.798;10.022;2023-03-23T10:17:46;13.40;99.90
5779;DHT22;2916;49.798;10.022;2023-03-23T10:20:35;13.40;99.90
5779;DHT22;2916;49.798;10.022;2023-03-23T10:23:14;13.40;99.90
5779;DHT22;2916;49.798;10.022;2023-03-23T10:26:06;13.50;99.90
5779;DHT22;2916;49.798;10.022;2023-03-23T10:28:43;13.40;99.90
5779;DHT22;2916;49.798;10.022;2023-03-23T10:31:13;13.40;99.90
5779;DHT22;2916;49.798;10.022;2023-03-23T10:33:47;13.40;99.90
5779;DHT22;2916;49.798;10.022;2023-03-23T10:36:19;13.50;99.90
5779;DHT22;2916;49.798;10.022;2023-03-23T10:38:57;13.50;99.90
5779;DHT22;2916;49.798;10.022;2023-03-23T10:41:27;13.60;99.90
5779;DHT22;2916;49.798;10.022;2023-03-23T10:43:55;13.60;99.90
5779;DHT22;2916;49.798;10.022;2023-03-23T10:46:29;13.60;99.90
5779;DHT22;2916;49.798;10.022;2023-03-23T10:49:07;13.70;99.90
5779;DHT22;2916;49.798;10.022;2023-03-23T10:51:43;13.80;98.90
5779;DHT22;2916;49.798;10.022;2023-03-23T10:54:25;14.00;95.40
5779;DHT22;2916;49.798;10.022;2023-03-23T10:56:53;14.10;93.60
5779;DHT22;2916;49.798;10.022;2023-03-23T10:59:31;14.20;88.80
5779;DHT22;2916;49.798;10.022;2023-03-23T11:02:02;14.20;87.50
5779;DHT22;2916;49.798;10.022;2023-03-23T11:04:37;14.30;88.30
5779;DHT22;2916;49.798;10.022;2023-03-23T11:07:04;14.50;84.30
5779;DHT22;2916;49.798;10.022;2023-03-23T11:09:36;14.40;68.40
5779;DHT22;2916;49.798;10.022;2023-03-23T11:12:16;14.60;77.60
5779;DHT22;2916;49.798;10.022;2023-03-23T11:14:46;14.50;67.30
5779;DHT22;2916;49.798;10.022;2023-03-23T11:17:21;14.70;66.20
5779;DHT22;2916;49.798;10.022;2023-03-23T11:19:50;14.70;62.80
5779;DHT22;2916;49.798;10.022;2023-03-23T11:22:24;14.70;64.90
5779;DHT22;2916;49.798;10.022;2023-03-23T11:24:54;14.70;59.90
5779;DHT22;2916;49.798;10.022;2023-03-23T11:27:24;14.70;47.60
5779;DHT22;2916;49.798;10.022;2023-03-23T11:29:56;14.80;48.80
5779;DHT22;2916;49.798;10.022;2023-03-23T11:32:28;14.70;42.30
5779;DHT22;2916;49.798;10.022;2023-03-23T11:34:58;14.60;41.00
5779;DHT22;2916;49.798;10.022;2023-03-23T11:37:33;14.60;46.90
5779;DHT22;2916;49.798;10.022;2023-03-23T11:40:15;14.70;53.30
5779;DHT22;2916;49.798;10.022;2023-03-23T11:42:46;14.70;40.00
5779;DHT22;2916;49.798;10.022;2023-03-23T11:45:20;14.80;43.90
5779;DHT22;2916;49.798;10.022;2023-03-23T11:47:59;14.70;41.60
5779;DHT22;2916;49.798;10.022;2023-03-23T11:50:43;14.60;44.10
5779;DHT22;2916;49.798;10.022;2023-03-23T11:53:20;14.70;42.70
5779;DHT22;2916;49.798;10.022;2023-03-23T11:56:06;14.80;44.40
5779;DHT22;2916;49.798;10.022;2023-03-23T11:58:39;14.70;42.40
5779;DHT22;2916;49.798;10.022;2023-03-23T12:01:13;14.70;48.40
5779;DHT22;2916;49.798;10.022;2023-03-23T12:10:26;14.40;61.70
5779;DHT22;2916;49.798;10.022;2023-03-23T12:13:11;14.50;65.70
5779;DHT22;2916;49.798;10.022;2023-03-23T12:15:56;14.40;64.10
5779;DHT22;2916;49.798;10.022;2023-03-23T12:18:37;14.30;61.70
5779;DHT22;2916;49.798;10.022;2023-03-23T12:21:28;14.30;70.90
5779;DHT22;2916;49.798;10.022;2023-03-23T12:24:14;14.30;75.50
5779;DHT22;2916;49.798;10.022;2023-03-23T12:26:55;14.30;69.70
5779;DHT22;2916;49.798;10.022;2023-03-23T12:29:42;14.20;69.60
5779;DHT22;2916;49.798;10.022;2023-03-23T12:32:41;14.20;74.60
5779;DHT22;2916;49.798;10.022;2023-03-23T12:35:32;14.30;78.90
5779;DHT22;2916;49.798;10.022;2023-03-23T12:41:20;14.20;80.50
5779;DHT22;2916;49.798;10.022;2023-03-23T12:43:58;14.30;88.70
5779;DHT22;2916;49.798;10.022;2023-03-23T12:46:51;14.30;89.20
5779;DHT22;2916;49.798;10.022;2023-03-23T12:49:33;14.20;86.30
5779;DHT22;2916;49.798;10.022;2023-03-23T12:52:15;14.30;90.70
5779;DHT22;2916;49.798;10.022;2023-03-23T12:54:50;14.30;94.00
5779;DHT22;2916;49.798;10.022;2023-03-23T12:57:25;14.20;92.20
5779;DHT22;2916;49.798;10.022;2023-03-23T13:00:04;14.30;91.90
5779;DHT22;2916;49.798;10.022;2023-03-23T13:02:42;14.50;92.10
5779;DHT22;2916;49.798;10.022;2023-03-23T13:05:26;14.50;89.40
5779;DHT22;2916;49.798;10.022;2023-03-23T13:08:03;14.50;90.80
5779;DHT22;2916;49.798;10.022;2023-03-23T13:10:40;14.60;95.80
5779;DHT22;2916;49.798;10.022;2023-03-23T13:13:17;14.70;97.50
5779;DHT22;2916;49.798;10.022;2023-03-23T13:15:56;14.70;99.90
5779;DHT22;2916;49.798;10.022;2023-03-23T13:18:40;14.60;99.90
5779;DHT22;2916;49.798;10.022;2023-03-23T13:21:18;14.70;99.90
5779;DHT22;2916;49.798;10.022;2023-03-23T13:23:56;14.70;99.90
5779;DHT22;2916;49.798;10.022;2023-03-23T13:26:26;14.60;99.90
5779;DHT22;2916;49.798;10.022;2023-03-23T13:28:57;14.70;99.90
5779;DHT22;2916;49.798;10.022;2023-03-23T13:31:28;14.70;99.90
5779;DHT22;2916;49.798;10.022;2023-03-23T13:34:02;14.70;99.90
5779;DHT22;2916;49.798;10.022;2023-03-23T13:36:36;14.70;99.90
5779;DHT22;2916;49.798;10.022;2023-03-23T13:39:18;14.80;99.90
5779;DHT22;2916;49.798;10.022;2023-03-23T13:41:48;14.90;99.90
5779;DHT22;2916;49.798;10.022;2023-03-23T13:44:26;14.90;99.20
5779;DHT22;2916;49.798;10.022;2023-03-23T13:46:57;15.00;99.80
5779;DHT22;2916;49.798;10.022;2023-03-23T13:49:33;15.20;94.60
5779;DHT22;2916;49.798;10.022;2023-03-23T13:52:17;15.10;93.30
5779;DHT22;2916;49.798;10.022;2023-03-23T13:54:51;15.00;95.20
5779;DHT22;2916;49.798;10.022;2023-03-23T13:57:50;15.10;94.90
5779;DHT22;2916;49.798;10.022;2023-03-23T14:00:38;15.10;93.90
5779;DHT22;2916;49.798;10.022;2023-03-23T14:03:16;14.90;91.00
5779;DHT22;2916;49.798;10.022;2023-03-23T14:05:59;14.90;90.20
5779;DHT22;2916;49.798;10.022;2023-03-23T14:08:39;15.00;92.10
5779;DHT22;2916;49.798;10.022;2023-03-23T14:11:15;15.00;90.90
5779;DHT22;2916;49.798;10.022;2023-03-23T14:13:50;14.90;90.10
5779;DHT22;2916;49.798;10.022;2023-03-23T14:16:32;14.90;90.00
5779;DHT22;2916;49.798;10.022;2023-03-23T14:19:14;14.80;90.40
5779;DHT22;2916;49.798;10.022;2023-03-23T14:21:50;14.90;87.70
5779;DHT22;2916;49.798;10.022;2023-03-23T14:24:22;15.00;90.00
5779;DHT22;2916;49.798;10.022;2023-03-23T14:27:01;15.10;85.30
5779;DHT22;2916;49.798;10.022;2023-03-23T14:29:35;14.90;80.90
5779;DHT22;2916;49.798;10.022;2023-03-23T14:32:04;14.90;79.80
5779;DHT22;2916;49.798;10.022;2023-03-23T14:34:34;15.10;80.50
5779;DHT22;2916;49.798;10.022;2023-03-23T14:37:02;15.00;77.50
5779;DHT22;2916;49.798;10.022;2023-03-23T14:39:31;14.90;78.60
5779;DHT22;2916;49.798;10.022;2023-03-23T14:42:04;14.90;79.20
5779;DHT22;2916;49.798;10.022;2023-03-23T14:44:42;14.80;76.90
5779;DHT22;2916;49.798;10.022;2023-03-23T14:47:16;14.90;76.50
5779;DHT22;2916;49.798;10.022;2023-03-23T14:49:46;14.80;78.10
5779;DHT22;2916;49.798;10.022;2023-03-23T14:52:16;14.80;77.80
5779;DHT22;2916;49.798;10.022;2023-03-23T14:54:45;14.70;75.00
5779;DHT22;2916;49.798;10.022;2023-03-23T14:57:15;14.60;74.10
5779;DHT22;2916;49.798;10.022;2023-03-23T14:59:45;14.70;75.10
5779;DHT22;2916;49.798;10.022;2023-03-23T15:02:17;14.60;74.60
5779;DHT22;2916;49.798;10.022;2023-03-23T15:04:51;14.70;73.90
5779;DHT22;2916;49.798;10.022;2023-03-23T15:07:29;14.70;70.70
5779;DHT22;2916;49.798;10.022;2023-03-23T15:09:59;14.60;68.90
5779;DHT22;2916;49.798;10.022;2023-03-23T15:12:29;14.60;66.40
5779;DHT22;2916;49.798;10.022;2023-03-23T15:14:59;14.60;64.00
5779;DHT22;2916;49.798;10.022;2023-03-23T15:17:30;14.60;64.20
5779;DHT22;2916;49.798;10.022;2023-03-23T15:20:09;14.60;62.70
5779;DHT22;2916;49.798;10.022;2023-03-23T15:22:47;14.50;62.60
5779;DHT22;2916;49.798;10.022;2023-03-23T15:25:19;14.60;63.50
5779;DHT22;2916;49.798;10.022;2023-03-23T15:27:53;14.50;67.40
5779;DHT22;2916;49.798;10.022;2023-03-23T15:30:33;14.40;63.30
5779;DHT22;2916;49.798;10.022;2023-03-23T15:33:04;14.50;64.00
5779;DHT22;2916;49.798;10.022;2023-03-23T15:35:39;14.50;65.10
5779;DHT22;2916;49.798;10.022;2023-03-23T15:38:18;14.40;62.80
5779;DHT22;2916;49.798;10.022;2023-03-23T15:40:50;14.50;63.60
5779;DHT22;2916;49.798;10.022;2023-03-23T15:43:21;14.50;63.10
5779;DHT22;2916;49.798;10.022;2023-03-23T15:45:55;14.40;66.70
5779;DHT22;2916;49.798;10.022;2023-03-23T15:48:26;14.40;68.40
5779;DHT22;2916;49.798;10.022;2023-03-23T15:50:54;14.40;69.70
5779;DHT22;2916;49.798;10.022;2023-03-23T15:53:28;14.40;69.50
5779;DHT22;2916;49.798;10.022;2023-03-23T15:56:00;14.40;68.20
5779;DHT22;2916;49.798;10.022;2023-03-23T15:58:30;14.40;69.10
5779;DHT22;2916;49.798;10.022;2023-03-23T16:00:59;14.30;67.30
5779;DHT22;2916;49.798;10.022;2023-03-23T16:03:34;14.40;65.70
5779;DHT22;2916;49.798;10.022;2023-03-23T16:06:08;14.50;65.90
5779;DHT22;2916;49.798;10.022;2023-03-23T16:08:37;14.50;64.80
5779;DHT22;2916;49.798;10.022;2023-03-23T16:11:05;14.50;63.30
5779;DHT22;2916;49.798;10.022;2023-03-23T16:13:35;14.50;62.60
5779;DHT22;2916;49.798;10.022;2023-03-23T16:16:02;14.60;60.20
5779;DHT22;2916;49.798;10.022;2023-03-23T16:18:33;14.60;65.90
5779;DHT22;2916;49.798;10.022;2023-03-23T16:21:00;14.50;62.60
5779;DHT22;2916;49.798;10.022;2023-03-23T16:23:28;14.50;60.80
5779;DHT22;2916;49.798;10.022;2023-03-23T16:25:55;14.50;62.60
5779;DHT22;2916;49.798;10.022;2023-03-23T16:28:22;14.50;61.10
5779;DHT22;2916;49.798;10.022;2023-03-23T16:30:51;14.50;62.60
5779;DHT22;2916;49.798;10.022;2023-03-23T16:33:18;14.50;63.40
5779;DHT22;2916;49.798;10.022;2023-03-23T16:35:45;14.50;62.60
5779;DHT22;2916;49.798;10.022;2023-03-23T16:38:14;14.50;62.60
5779;DHT22;2916;49.798;10.022;2023-03-23T16:40:44;14.40;65.60